Houston, Texas
Traffic Map
Current Weather Conditions
Houston, Texas
Broken Clouds
Broken Clouds
20°
Feels Like: 20°
Wind Chill: 20° Ceiling: 3300
Heat Index: 20° Visibility: 10mi
Dew Point: 12° Wind: 17mph
Humidity: 60% Direction: 140° (SE)
Pressure: 30.16in Gusts: 23mph
Raw Report DataKMCJ 282035Z AUTO 14015G20KT 10SM BKN033 BKN041 BKN049 20/12 A3016 RMK AO1
Traffic Incident Summary
Active as of:
Severity:
Category:
InformationThere was an issue retrieving the traffic information for this location. Please try a different location or try again shortly.
Advertisements
Track Severe Weather on mobile